sensor_id;sensor_type;location;lat;lon;timestamp;temperature;humidity
25450;DHT22;13371;52.080;5.624;2023-02-01T00:45:38;7.30;99.90
25450;DHT22;13371;52.080;5.624;2023-02-01T00:48:04;7.50;99.90
25450;DHT22;13371;52.080;5.624;2023-02-01T00:50:30;7.40;99.90
25450;DHT22;13371;52.080;5.624;2023-02-01T00:52:55;7.40;99.90
25450;DHT22;13371;52.080;5.624;2023-02-01T00:55:21;7.40;99.90
25450;DHT22;13371;52.080;5.624;2023-02-01T00:57:47;7.40;99.90
25450;DHT22;13371;52.080;5.624;2023-02-01T01:00:12;7.20;99.90
25450;DHT22;13371;52.080;5.624;2023-02-01T01:02:38;7.40;99.90
25450;DHT22;13371;52.080;5.624;2023-02-01T01:05:04;7.60;99.90
25450;DHT22;13371;52.080;5.624;2023-02-01T01:07:29;7.60;99.90
25450;DHT22;13371;52.080;5.624;2023-02-01T01:09:55;7.70;99.90
25450;DHT22;13371;52.080;5.624;2023-02-01T01:12:21;7.70;99.90
25450;DHT22;13371;52.080;5.624;2023-02-01T01:14:46;7.70;99.90
25450;DHT22;13371;52.080;5.624;2023-02-01T01:17:12;7.60;99.90
25450;DHT22;13371;52.080;5.624;2023-02-01T01:19:38;7.40;99.90
25450;DHT22;13371;52.080;5.624;2023-02-01T01:22:03;7.50;99.90
25450;DHT22;13371;52.080;5.624;2023-02-01T01:24:29;7.50;99.90
25450;DHT22;13371;52.080;5.624;2023-02-01T01:26:54;7.20;99.90
25450;DHT22;13371;52.080;5.624;2023-02-01T01:29:20;7.50;99.90
25450;DHT22;13371;52.080;5.624;2023-02-01T01:31:46;7.70;99.90
25450;DHT22;13371;52.080;5.624;2023-02-01T01:34:11;7.60;99.90
25450;DHT22;13371;52.080;5.624;2023-02-01T01:36:37;7.80;99.90
25450;DHT22;13371;52.080;5.624;2023-02-01T01:39:02;7.80;99.90
25450;DHT22;13371;52.080;5.624;2023-02-01T01:41:32;7.40;99.90
25450;DHT22;13371;52.080;5.624;2023-02-01T01:44:03;7.60;99.90
25450;DHT22;13371;52.080;5.624;2023-02-01T01:46:34;7.80;99.90
25450;DHT22;13371;52.080;5.624;2023-02-01T01:49:16;7.60;99.90
25450;DHT22;13371;52.080;5.624;2023-02-01T01:51:54;7.70;99.90
25450;DHT22;13371;52.080;5.624;2023-02-01T01:54:28;7.80;99.90
25450;DHT22;13371;52.080;5.624;2023-02-01T01:56:57;7.70;99.90
25450;DHT22;13371;52.080;5.624;2023-02-01T01:59:24;7.50;99.90
25450;DHT22;13371;52.080;5.624;2023-02-01T02:01:51;7.60;99.90
25450;DHT22;13371;52.080;5.624;2023-02-01T02:04:17;7.70;99.90
25450;DHT22;13371;52.080;5.624;2023-02-01T02:09:13;7.90;99.90
25450;DHT22;13371;52.080;5.624;2023-02-01T02:11:39;8.10;99.70
25450;DHT22;13371;52.080;5.624;2023-02-01T02:14:07;8.20;99.50
25450;DHT22;13371;52.080;5.624;2023-02-01T02:22:28;8.20;98.70
25450;DHT22;13371;52.080;5.624;2023-02-01T02:27:38;7.90;99.90
25450;DHT22;13371;52.080;5.624;2023-02-01T02:35:38;8.10;99.80
25450;DHT22;13371;52.080;5.624;2023-02-01T02:43:44;7.90;99.90
25450;DHT22;13371;52.080;5.624;2023-02-01T02:46:37;8.00;99.90
25450;DHT22;13371;52.080;5.624;2023-02-01T02:49:23;8.00;99.90
25450;DHT22;13371;52.080;5.624;2023-02-01T02:52:09;8.00;99.90
25450;DHT22;13371;52.080;5.624;2023-02-01T02:54:57;7.90;99.90
25450;DHT22;13371;52.080;5.624;2023-02-01T02:57:37;7.90;99.90
25450;DHT22;13371;52.080;5.624;2023-02-01T03:00:27;7.90;99.90
25450;DHT22;13371;52.080;5.624;2023-02-01T03:03:12;8.10;99.90
25450;DHT22;13371;52.080;5.624;2023-02-01T03:05:56;8.20;99.90
25450;DHT22;13371;52.080;5.624;2023-02-01T03:08:26;8.40;99.90
25450;DHT22;13371;52.080;5.624;2023-02-01T03:11:04;8.30;99.90
25450;DHT22;13371;52.080;5.624;2023-02-01T03:13:52;8.30;99.90
25450;DHT22;13371;52.080;5.624;2023-02-01T03:16:49;8.30;99.90
25450;DHT22;13371;52.080;5.624;2023-02-01T03:19:31;8.20;99.90
25450;DHT22;13371;52.080;5.624;2023-02-01T03:22:11;8.20;99.90
25450;DHT22;13371;52.080;5.624;2023-02-01T03:24:44;8.00;99.90
25450;DHT22;13371;52.080;5.624;2023-02-01T03:29:50;8.50;99.90
25450;DHT22;13371;52.080;5.624;2023-02-01T03:32:16;8.40;99.90
25450;DHT22;13371;52.080;5.624;2023-02-01T03:34:43;8.70;99.60
25450;DHT22;13371;52.080;5.624;2023-02-01T03:37:10;8.70;99.40
25450;DHT22;13371;52.080;5.624;2023-02-01T03:39:46;8.60;99.30
25450;DHT22;13371;52.080;5.624;2023-02-01T03:42:26;8.50;99.60
25450;DHT22;13371;52.080;5.624;2023-02-01T03:45:08;8.70;99.20
25450;DHT22;13371;52.080;5.624;2023-02-01T03:47:39;8.50;99.20
25450;DHT22;13371;52.080;5.624;2023-02-01T03:50:09;8.40;99.40
25450;DHT22;13371;52.080;5.624;2023-02-01T03:52:48;8.40;99.20
25450;DHT22;13371;52.080;5.624;2023-02-01T03:55:19;8.50;99.30
25450;DHT22;13371;52.080;5.624;2023-02-01T03:57:55;8.50;99.20
25450;DHT22;13371;52.080;5.624;2023-02-01T04:00:24;8.50;99.40
25450;DHT22;13371;52.080;5.624;2023-02-01T04:02:51;8.50;98.90
25450;DHT22;13371;52.080;5.624;2023-02-01T04:05:17;8.30;99.70
25450;DHT22;13371;52.080;5.624;2023-02-01T04:07:43;8.20;99.90
25450;DHT22;13371;52.080;5.624;2023-02-01T04:10:09;8.10;99.90
25450;DHT22;13371;52.080;5.624;2023-02-01T04:12:35;8.10;99.90
25450;DHT22;13371;52.080;5.624;2023-02-01T04:15:01;8.00;99.90
25450;DHT22;13371;52.080;5.624;2023-02-01T04:17:26;8.10;99.90
25450;DHT22;13371;52.080;5.624;2023-02-01T04:19:52;8.20;99.90
25450;DHT22;13371;52.080;5.624;2023-02-01T04:22:17;8.30;99.90
25450;DHT22;13371;52.080;5.624;2023-02-01T04:24:43;8.30;99.80
25450;DHT22;13371;52.080;5.624;2023-02-01T04:27:08;8.40;99.90
25450;DHT22;13371;52.080;5.624;2023-02-01T04:29:34;8.60;99.40
25450;DHT22;13371;52.080;5.624;2023-02-01T04:32:00;8.30;99.80
25450;DHT22;13371;52.080;5.624;2023-02-01T04:34:25;8.20;99.90
25450;DHT22;13371;52.080;5.624;2023-02-01T04:36:51;8.20;99.90
25450;DHT22;13371;52.080;5.624;2023-02-01T04:39:17;8.20;99.90
25450;DHT22;13371;52.080;5.624;2023-02-01T04:41:43;8.20;99.80
25450;DHT22;13371;52.080;5.624;2023-02-01T04:44:14;8.30;99.90
25450;DHT22;13371;52.080;5.624;2023-02-01T04:46:40;8.30;99.90
25450;DHT22;13371;52.080;5.624;2023-02-01T04:49:06;8.30;99.80
25450;DHT22;13371;52.080;5.624;2023-02-01T04:51:31;8.30;99.90
25450;DHT22;13371;52.080;5.624;2023-02-01T04:53:57;8.60;99.60
25450;DHT22;13371;52.080;5.624;2023-02-01T04:56:23;8.60;99.20
25450;DHT22;13371;52.080;5.624;2023-02-01T04:58:48;8.40;99.40
25450;DHT22;13371;52.080;5.624;2023-02-01T05:01:14;8.20;99.80
25450;DHT22;13371;52.080;5.624;2023-02-01T05:03:40;8.40;99.90
25450;DHT22;13371;52.080;5.624;2023-02-01T05:06:05;8.60;99.40
25450;DHT22;13371;52.080;5.624;2023-02-01T05:08:32;8.50;99.70
25450;DHT22;13371;52.080;5.624;2023-02-01T05:10:58;8.70;99.40
25450;DHT22;13371;52.080;5.624;2023-02-01T05:13:24;8.80;99.00
25450;DHT22;13371;52.080;5.624;2023-02-01T05:16:08;8.90;98.80
25450;DHT22;13371;52.080;5.624;2023-02-01T05:18:34;9.00;98.60
25450;DHT22;13371;52.080;5.624;2023-02-01T05:20:59;8.80;98.80
25450;DHT22;13371;52.080;5.624;2023-02-01T05:23:25;8.90;98.80
25450;DHT22;13371;52.080;5.624;2023-02-01T05:25:51;8.60;99.10
25450;DHT22;13371;52.080;5.624;2023-02-01T05:28:19;8.30;99.70
25450;DHT22;13371;52.080;5.624;2023-02-01T05:30:45;8.30;99.90
25450;DHT22;13371;52.080;5.624;2023-02-01T05:33:10;8.40;99.90
25450;DHT22;13371;52.080;5.624;2023-02-01T05:35:36;8.50;99.80
25450;DHT22;13371;52.080;5.624;2023-02-01T05:38:01;8.50;99.80
25450;DHT22;13371;52.080;5.624;2023-02-01T05:40:27;8.30;99.90
25450;DHT22;13371;52.080;5.624;2023-02-01T05:42:52;8.50;99.90
25450;DHT22;13371;52.080;5.624;2023-02-01T05:45:18;8.50;99.90
25450;DHT22;13371;52.080;5.624;2023-02-01T05:47:43;8.40;99.90
25450;DHT22;13371;52.080;5.624;2023-02-01T05:50:09;8.50;99.90
25450;DHT22;13371;52.080;5.624;2023-02-01T05:52:35;8.50;99.90
25450;DHT22;13371;52.080;5.624;2023-02-01T05:55:00;8.40;99.90
25450;DHT22;13371;52.080;5.624;2023-02-01T05:57:26;8.10;99.90
25450;DHT22;13371;52.080;5.624;2023-02-01T05:59:51;8.20;99.90
25450;DHT22;13371;52.080;5.624;2023-02-01T06:02:17;8.20;99.90
25450;DHT22;13371;52.080;5.624;2023-02-01T06:04:42;8.40;99.90
25450;DHT22;13371;52.080;5.624;2023-02-01T06:07:09;8.40;99.90
25450;DHT22;13371;52.080;5.624;2023-02-01T06:09:36;8.60;99.80
25450;DHT22;13371;52.080;5.624;2023-02-01T06:12:02;8.60;99.70
25450;DHT22;13371;52.080;5.624;2023-02-01T06:14:28;8.60;99.60
25450;DHT22;13371;52.080;5.624;2023-02-01T06:16:56;8.60;99.90
25450;DHT22;13371;52.080;5.624;2023-02-01T06:19:23;8.30;99.90
25450;DHT22;13371;52.080;5.624;2023-02-01T06:21:48;8.50;99.90
25450;DHT22;13371;52.080;5.624;2023-02-01T06:24:14;8.50;99.90
25450;DHT22;13371;52.080;5.624;2023-02-01T06:26:40;8.60;99.90
25450;DHT22;13371;52.080;5.624;2023-02-01T06:29:10;8.80;99.80
25450;DHT22;13371;52.080;5.624;2023-02-01T06:31:35;8.80;99.30
25450;DHT22;13371;52.080;5.624;2023-02-01T06:34:01;8.70;99.80
25450;DHT22;13371;52.080;5.624;2023-02-01T06:36:28;8.70;99.90
25450;DHT22;13371;52.080;5.624;2023-02-01T06:38:55;8.70;99.90
25450;DHT22;13371;52.080;5.624;2023-02-01T06:41:22;8.70;99.90
25450;DHT22;13371;52.080;5.624;2023-02-01T06:43:47;8.80;99.90
25450;DHT22;13371;52.080;5.624;2023-02-01T06:46:13;8.40;99.90
25450;DHT22;13371;52.080;5.624;2023-02-01T06:48:39;8.40;99.90
25450;DHT22;13371;52.080;5.624;2023-02-01T06:51:05;8.50;99.90
25450;DHT22;13371;52.080;5.624;2023-02-01T06:53:31;8.70;99.90
25450;DHT22;13371;52.080;5.624;2023-02-01T06:55:59;8.50;99.90
25450;DHT22;13371;52.080;5.624;2023-02-01T06:58:28;8.50;99.90
25450;DHT22;13371;52.080;5.624;2023-02-01T07:00:54;8.50;99.90
25450;DHT22;13371;52.080;5.624;2023-02-01T07:03:20;8.60;99.90
25450;DHT22;13371;52.080;5.624;2023-02-01T07:05:45;8.40;99.90
25450;DHT22;13371;52.080;5.624;2023-02-01T07:08:11;8.50;99.90
25450;DHT22;13371;52.080;5.624;2023-02-01T07:10:37;8.30;99.90
25450;DHT22;13371;52.080;5.624;2023-02-01T07:13:03;8.30;99.90
25450;DHT22;13371;52.080;5.624;2023-02-01T07:15:28;8.30;99.90
25450;DHT22;13371;52.080;5.624;2023-02-01T07:17:54;8.20;99.90
25450;DHT22;13371;52.080;5.624;2023-02-01T07:20:20;8.10;99.90
25450;DHT22;13371;52.080;5.624;2023-02-01T07:22:46;8.20;99.90
25450;DHT22;13371;52.080;5.624;2023-02-01T07:25:11;8.30;99.90
25450;DHT22;13371;52.080;5.624;2023-02-01T07:27:37;8.20;99.90
25450;DHT22;13371;52.080;5.624;2023-02-01T07:30:06;8.20;99.90
25450;DHT22;13371;52.080;5.624;2023-02-01T07:32:32;8.30;99.90
25450;DHT22;13371;52.080;5.624;2023-02-01T07:34:58;8.20;99.90
25450;DHT22;13371;52.080;5.624;2023-02-01T07:37:24;8.20;99.90
25450;DHT22;13371;52.080;5.624;2023-02-01T07:39:52;8.20;99.90
25450;DHT22;13371;52.080;5.624;2023-02-01T07:42:18;8.00;99.90
25450;DHT22;13371;52.080;5.624;2023-02-01T07:44:44;8.20;99.90
25450;DHT22;13371;52.080;5.624;2023-02-01T07:47:09;8.30;99.90
25450;DHT22;13371;52.080;5.624;2023-02-01T07:49:35;8.10;99.90
25450;DHT22;13371;52.080;5.624;2023-02-01T07:52:00;7.90;99.90
25450;DHT22;13371;52.080;5.624;2023-02-01T07:54:26;8.00;99.90
25450;DHT22;13371;52.080;5.624;2023-02-01T07:56:52;8.10;99.90
25450;DHT22;13371;52.080;5.624;2023-02-01T07:59:17;8.20;99.90
25450;DHT22;13371;52.080;5.624;2023-02-01T08:01:43;8.30;99.90
25450;DHT22;13371;52.080;5.624;2023-02-01T08:04:11;8.20;99.90
25450;DHT22;13371;52.080;5.624;2023-02-01T08:06:38;8.20;99.90
25450;DHT22;13371;52.080;5.624;2023-02-01T08:09:04;8.40;99.90
25450;DHT22;13371;52.080;5.624;2023-02-01T08:11:30;8.40;99.90
25450;DHT22;13371;52.080;5.624;2023-02-01T08:13:58;8.30;99.90
25450;DHT22;13371;52.080;5.624;2023-02-01T08:16:24;8.40;99.90
25450;DHT22;13371;52.080;5.624;2023-02-01T08:18:50;8.50;99.90
25450;DHT22;13371;52.080;5.624;2023-02-01T08:21:21;8.50;99.90
25450;DHT22;13371;52.080;5.624;2023-02-01T08:23:47;8.60;99.90
25450;DHT22;13371;52.080;5.624;2023-02-01T08:26:22;8.40;99.90
25450;DHT22;13371;52.080;5.624;2023-02-01T08:28:54;8.50;99.90
25450;DHT22;13371;52.080;5.624;2023-02-01T08:31:21;8.60;99.90
25450;DHT22;13371;52.080;5.624;2023-02-01T08:33:50;8.60;99.90
25450;DHT22;13371;52.080;5.624;2023-02-01T08:36:17;8.50;99.90
25450;DHT22;13371;52.080;5.624;2023-02-01T08:38:42;8.40;99.90
25450;DHT22;13371;52.080;5.624;2023-02-01T08:41:14;8.60;99.90
25450;DHT22;13371;52.080;5.624;2023-02-01T08:43:40;8.90;99.90
25450;DHT22;13371;52.080;5.624;2023-02-01T08:46:07;9.10;99.90
25450;DHT22;13371;52.080;5.624;2023-02-01T08:48:33;9.30;99.40
25450;DHT22;13371;52.080;5.624;2023-02-01T08:51:04;9.50;99.00
25450;DHT22;13371;52.080;5.624;2023-02-01T08:53:30;9.40;98.90
25450;DHT22;13371;52.080;5.624;2023-02-01T08:55:56;9.10;99.30
25450;DHT22;13371;52.080;5.624;2023-02-01T08:58:22;9.10;99.50
25450;DHT22;13371;52.080;5.624;2023-02-01T09:00:48;9.20;99.60
25450;DHT22;13371;52.080;5.624;2023-02-01T09:03:15;9.30;99.60
25450;DHT22;13371;52.080;5.624;2023-02-01T09:05:41;9.10;99.90
25450;DHT22;13371;52.080;5.624;2023-02-01T09:08:07;9.20;99.90
25450;DHT22;13371;52.080;5.624;2023-02-01T09:10:34;9.30;99.50
25450;DHT22;13371;52.080;5.624;2023-02-01T09:12:59;9.10;99.90
25450;DHT22;13371;52.080;5.624;2023-02-01T09:15:25;9.00;99.90
25450;DHT22;13371;52.080;5.624;2023-02-01T09:17:50;9.20;99.90
25450;DHT22;13371;52.080;5.624;2023-02-01T09:20:16;9.40;99.50
25450;DHT22;13371;52.080;5.624;2023-02-01T09:22:42;9.20;99.50
25450;DHT22;13371;52.080;5.624;2023-02-01T09:25:08;9.00;99.90
25450;DHT22;13371;52.080;5.624;2023-02-01T09:27:34;8.90;99.90
25450;DHT22;13371;52.080;5.624;2023-02-01T09:30:00;9.10;99.90
25450;DHT22;13371;52.080;5.624;2023-02-01T09:32:26;9.00;99.90
25450;DHT22;13371;52.080;5.624;2023-02-01T09:34:52;9.10;99.90
25450;DHT22;13371;52.080;5.624;2023-02-01T09:37:18;9.40;99.90
25450;DHT22;13371;52.080;5.624;2023-02-01T09:39:44;9.30;99.80
25450;DHT22;13371;52.080;5.624;2023-02-01T09:45:10;9.20;99.90
25450;DHT22;13371;52.080;5.624;2023-02-01T09:47:46;9.10;99.90
25450;DHT22;13371;52.080;5.624;2023-02-01T09:50:17;9.10;99.90
25450;DHT22;13371;52.080;5.624;2023-02-01T09:52:57;9.20;99.90
25450;DHT22;13371;52.080;5.624;2023-02-01T09:55:39;9.20;99.80
25450;DHT22;13371;52.080;5.624;2023-02-01T09:58:12;9.10;99.90
25450;DHT22;13371;52.080;5.624;2023-02-01T10:00:41;9.00;99.90
25450;DHT22;13371;52.080;5.624;2023-02-01T10:03:13;8.80;99.90
25450;DHT22;13371;52.080;5.624;2023-02-01T10:14:32;9.00;99.90
25450;DHT22;13371;52.080;5.624;2023-02-01T10:23:50;8.80;99.90
25450;DHT22;13371;52.080;5.624;2023-02-01T10:26:23;8.60;99.90
25450;DHT22;13371;52.080;5.624;2023-02-01T10:28:54;8.60;99.90
25450;DHT22;13371;52.080;5.624;2023-02-01T10:31:25;8.80;99.90
25450;DHT22;13371;52.080;5.624;2023-02-01T10:33:56;8.60;99.90
25450;DHT22;13371;52.080;5.624;2023-02-01T10:36:33;8.50;99.90
25450;DHT22;13371;52.080;5.624;2023-02-01T10:39:02;8.50;99.90
25450;DHT22;13371;52.080;5.624;2023-02-01T10:41:36;8.50;99.90
25450;DHT22;13371;52.080;5.624;2023-02-01T10:44:10;8.60;99.90
25450;DHT22;13371;52.080;5.624;2023-02-01T10:46:37;8.30;99.90
25450;DHT22;13371;52.080;5.624;2023-02-01T10:49:04;8.30;99.90
25450;DHT22;13371;52.080;5.624;2023-02-01T10:52:05;8.10;99.90
25450;DHT22;13371;52.080;5.624;2023-02-01T10:54:37;7.90;99.90
25450;DHT22;13371;52.080;5.624;2023-02-01T10:57:11;7.80;99.90
25450;DHT22;13371;52.080;5.624;2023-02-01T10:59:44;7.90;99.90
25450;DHT22;13371;52.080;5.624;2023-02-01T11:02:26;8.00;99.90
25450;DHT22;13371;52.080;5.624;2023-02-01T11:05:05;8.20;99.90
25450;DHT22;13371;52.080;5.624;2023-02-01T11:07:34;8.50;99.90
25450;DHT22;13371;52.080;5.624;2023-02-01T11:10:01;8.60;99.90
25450;DHT22;13371;52.080;5.624;2023-02-01T11:17:43;8.60;99.90
25450;DHT22;13371;52.080;5.624;2023-02-01T11:20:20;8.60;99.90
25450;DHT22;13371;52.080;5.624;2023-02-01T11:22:54;8.40;99.90
25450;DHT22;13371;52.080;5.624;2023-02-01T11:25:20;8.30;99.90
25450;DHT22;13371;52.080;5.624;2023-02-01T11:27:49;8.40;99.90
25450;DHT22;13371;52.080;5.624;2023-02-01T11:32:51;8.80;99.90
25450;DHT22;13371;52.080;5.624;2023-02-01T11:35:20;8.90;99.90
25450;DHT22;13371;52.080;5.624;2023-02-01T11:37:50;8.60;99.90
25450;DHT22;13371;52.080;5.624;2023-02-01T11:45:32;8.80;99.90
25450;DHT22;13371;52.080;5.624;2023-02-01T11:48:08;8.80;99.90
25450;DHT22;13371;52.080;5.624;2023-02-01T11:56:12;9.30;99.90
25450;DHT22;13371;52.080;5.624;2023-02-01T11:59:05;9.20;99.90
25450;DHT22;13371;52.080;5.624;2023-02-01T12:12:34;9.30;99.90
25450;DHT22;13371;52.080;5.624;2023-02-01T12:17:53;9.80;99.90
25450;DHT22;13371;52.080;5.624;2023-02-01T12:20:35;9.60;99.90
25450;DHT22;13371;52.080;5.624;2023-02-01T12:37:04;9.50;99.90
25450;DHT22;13371;52.080;5.624;2023-02-01T12:39:39;9.60;99.90
25450;DHT22;13371;52.080;5.624;2023-02-01T12:45:26;9.50;99.90
25450;DHT22;13371;52.080;5.624;2023-02-01T12:47:49;9.60;99.90
25450;DHT22;13371;52.080;5.624;2023-02-01T12:50:28;9.70;99.90
25450;DHT22;13371;52.080;5.624;2023-02-01T12:53:18;9.50;99.90
25450;DHT22;13371;52.080;5.624;2023-02-01T12:55:58;9.40;99.90
25450;DHT22;13371;52.080;5.624;2023-02-01T12:58:44;9.40;99.90
25450;DHT22;13371;52.080;5.624;2023-02-01T13:01:17;9.50;99.90
25450;DHT22;13371;52.080;5.624;2023-02-01T13:04:05;9.50;99.90
25450;DHT22;13371;52.080;5.624;2023-02-01T13:07:16;9.60;99.90
25450;DHT22;13371;52.080;5.624;2023-02-01T13:12:29;9.60;99.90
25450;DHT22;13371;52.080;5.624;2023-02-01T13:15:13;9.70;99.90
25450;DHT22;13371;52.080;5.624;2023-02-01T13:17:42;9.50;99.90
25450;DHT22;13371;52.080;5.624;2023-02-01T13:20:25;9.80;99.90
25450;DHT22;13371;52.080;5.624;2023-02-01T13:23:12;9.80;99.90
25450;DHT22;13371;52.080;5.624;2023-02-01T13:25:50;9.60;99.90
25450;DHT22;13371;52.080;5.624;2023-02-01T13:42:33;9.70;99.90
25450;DHT22;13371;52.080;5.624;2023-02-01T13:44:59;9.60;99.90
25450;DHT22;13371;52.080;5.624;2023-02-01T13:47:49;9.70;99.90
25450;DHT22;13371;52.080;5.624;2023-02-01T13:50:29;9.90;99.90
25450;DHT22;13371;52.080;5.624;2023-02-01T13:52:58;10.20;99.70
25450;DHT22;13371;52.080;5.624;2023-02-01T13:55:33;9.80;99.90
25450;DHT22;13371;52.080;5.624;2023-02-01T13:58:42;9.90;99.90
25450;DHT22;13371;52.080;5.624;2023-02-01T14:03:57;9.70;99.90
25450;DHT22;13371;52.080;5.624;2023-02-01T14:19:32;10.00;99.90
25450;DHT22;13371;52.080;5.624;2023-02-01T14:24:54;10.00;99.90
25450;DHT22;13371;52.080;5.624;2023-02-01T14:27:26;10.00;99.80
25450;DHT22;13371;52.080;5.624;2023-02-01T14:29:57;9.90;99.90
25450;DHT22;13371;52.080;5.624;2023-02-01T14:32:30;9.70;99.90
25450;DHT22;13371;52.080;5.624;2023-02-01T14:34:58;9.90;99.90
25450;DHT22;13371;52.080;5.624;2023-02-01T14:37:29;10.10;99.90
25450;DHT22;13371;52.080;5.624;2023-02-01T14:47:43;10.20;99.90
25450;DHT22;13371;52.080;5.624;2023-02-01T15:01:15;10.20;99.90
25450;DHT22;13371;52.080;5.624;2023-02-01T15:06:47;9.80;99.90
25450;DHT22;13371;52.080;5.624;2023-02-01T15:09:20;9.60;99.90
25450;DHT22;13371;52.080;5.624;2023-02-01T15:12:19;9.50;99.90
25450;DHT22;13371;52.080;5.624;2023-02-01T15:15:14;9.90;99.90
25450;DHT22;13371;52.080;5.624;2023-02-01T15:17:40;9.90;99.90
25450;DHT22;13371;52.080;5.624;2023-02-01T15:20:27;9.60;99.90
25450;DHT22;13371;52.080;5.624;2023-02-01T15:23:04;9.60;99.90
25450;DHT22;13371;52.080;5.624;2023-02-01T15:25:32;9.50;99.90
25450;DHT22;13371;52.080;5.624;2023-02-01T15:27:58;9.50;99.90
25450;DHT22;13371;52.080;5.624;2023-02-01T15:30:26;9.50;99.90
25450;DHT22;13371;52.080;5.624;2023-02-01T15:38:44;9.50;99.90
25450;DHT22;13371;52.080;5.624;2023-02-01T15:41:16;9.40;99.90
25450;DHT22;13371;52.080;5.624;2023-02-01T15:46:30;9.50;99.90
25450;DHT22;13371;52.080;5.624;2023-02-01T15:48:56;9.50;99.90
25450;DHT22;13371;52.080;5.624;2023-02-01T15:51:28;9.50;99.90
25450;DHT22;13371;52.080;5.624;2023-02-01T15:54:00;9.80;99.90
25450;DHT22;13371;52.080;5.624;2023-02-01T15:56:28;10.10;99.90
25450;DHT22;13371;52.080;5.624;2023-02-01T15:58:59;9.90;99.90
25450;DHT22;13371;52.080;5.624;2023-02-01T16:01:25;9.80;99.90
25450;DHT22;13371;52.080;5.624;2023-02-01T16:07:02;9.90;99.90
25450;DHT22;13371;52.080;5.624;2023-02-01T16:09:54;9.90;99.90
25450;DHT22;13371;52.080;5.624;2023-02-01T16:12:55;10.10;99.90
25450;DHT22;13371;52.080;5.624;2023-02-01T16:15:23;10.20;99.90
25450;DHT22;13371;52.080;5.624;2023-02-01T16:17:49;9.90;99.90
25450;DHT22;13371;52.080;5.624;2023-02-01T16:20:15;9.80;99.90
25450;DHT22;13371;52.080;5.624;2023-02-01T16:22:40;9.90;99.90
25450;DHT22;13371;52.080;5.624;2023-02-01T16:25:06;9.90;99.90
25450;DHT22;13371;52.080;5.624;2023-02-01T16:27:32;10.00;99.90
25450;DHT22;13371;52.080;5.624;2023-02-01T16:29:58;10.20;99.90
25450;DHT22;13371;52.080;5.624;2023-02-01T16:32:23;10.40;99.90
25450;DHT22;13371;52.080;5.624;2023-02-01T16:34:51;10.40;99.90
25450;DHT22;13371;52.080;5.624;2023-02-01T16:37:21;10.20;99.90
25450;DHT22;13371;52.080;5.624;2023-02-01T16:40:00;10.10;99.90
25450;DHT22;13371;52.080;5.624;2023-02-01T16:42:26;10.10;99.90
25450;DHT22;13371;52.080;5.624;2023-02-01T16:44:56;10.10;99.90
25450;DHT22;13371;52.080;5.624;2023-02-01T16:47:23;10.10;99.90
25450;DHT22;13371;52.080;5.624;2023-02-01T16:49:49;10.30;99.90
25450;DHT22;13371;52.080;5.624;2023-02-01T16:52:25;10.30;99.90
25450;DHT22;13371;52.080;5.624;2023-02-01T16:54:51;10.40;99.90
25450;DHT22;13371;52.080;5.624;2023-02-01T16:57:19;10.10;99.90
25450;DHT22;13371;52.080;5.624;2023-02-01T16:59:47;9.80;99.90
25450;DHT22;13371;52.080;5.624;2023-02-01T17:02:19;9.80;99.90
25450;DHT22;13371;52.080;5.624;2023-02-01T17:04:45;9.80;99.90
25450;DHT22;13371;52.080;5.624;2023-02-01T17:07:18;9.70;99.90
25450;DHT22;13371;52.080;5.624;2023-02-01T17:09:44;9.70;99.90
25450;DHT22;13371;52.080;5.624;2023-02-01T17:14:49;9.60;99.90
25450;DHT22;13371;52.080;5.624;2023-02-01T17:17:16;9.80;99.90
25450;DHT22;13371;52.080;5.624;2023-02-01T17:19:44;10.00;99.90
25450;DHT22;13371;52.080;5.624;2023-02-01T17:22:11;10.10;99.90
25450;DHT22;13371;52.080;5.624;2023-02-01T17:24:39;10.00;99.90
25450;DHT22;13371;52.080;5.624;2023-02-01T17:27:04;10.00;99.90
25450;DHT22;13371;52.080;5.624;2023-02-01T17:29:30;9.90;99.90
25450;DHT22;13371;52.080;5.624;2023-02-01T17:31:56;10.10;99.90
25450;DHT22;13371;52.080;5.624;2023-02-01T17:34:24;10.10;99.90
25450;DHT22;13371;52.080;5.624;2023-02-01T17:36:50;10.20;99.90
25450;DHT22;13371;52.080;5.624;2023-02-01T17:39:16;10.30;99.90
25450;DHT22;13371;52.080;5.624;2023-02-01T17:42:02;10.30;99.90
25450;DHT22;13371;52.080;5.624;2023-02-01T17:44:28;10.10;99.90
25450;DHT22;13371;52.080;5.624;2023-02-01T17:46:53;10.00;99.90
25450;DHT22;13371;52.080;5.624;2023-02-01T17:49:21;10.10;99.90
25450;DHT22;13371;52.080;5.624;2023-02-01T17:51:47;10.20;99.90
25450;DHT22;13371;52.080;5.624;2023-02-01T17:54:15;10.10;99.90
25450;DHT22;13371;52.080;5.624;2023-02-01T17:56:41;10.20;99.90
25450;DHT22;13371;52.080;5.624;2023-02-01T17:59:07;10.10;99.90
25450;DHT22;13371;52.080;5.624;2023-02-01T18:01:32;10.30;99.90
25450;DHT22;13371;52.080;5.624;2023-02-01T18:03:58;10.60;99.90
25450;DHT22;13371;52.080;5.624;2023-02-01T18:06:25;10.70;99.90
25450;DHT22;13371;52.080;5.624;2023-02-01T18:08:51;10.70;99.90
25450;DHT22;13371;52.080;5.624;2023-02-01T18:11:22;10.50;99.90
25450;DHT22;13371;52.080;5.624;2023-02-01T18:13:49;10.40;99.90
25450;DHT22;13371;52.080;5.624;2023-02-01T18:16:23;10.50;99.90
25450;DHT22;13371;52.080;5.624;2023-02-01T18:18:49;10.20;99.90
25450;DHT22;13371;52.080;5.624;2023-02-01T18:21:16;10.10;99.90
25450;DHT22;13371;52.080;5.624;2023-02-01T18:23:42;10.10;99.90
25450;DHT22;13371;52.080;5.624;2023-02-01T18:26:16;10.00;99.90
25450;DHT22;13371;52.080;5.624;2023-02-01T18:28:42;9.30;99.90
25450;DHT22;13371;52.080;5.624;2023-02-01T18:31:29;9.00;99.90
25450;DHT22;13371;52.080;5.624;2023-02-01T18:33:56;8.60;99.90
25450;DHT22;13371;52.080;5.624;2023-02-01T18:36:22;8.30;99.90
25450;DHT22;13371;52.080;5.624;2023-02-01T18:38:48;8.40;99.90
25450;DHT22;13371;52.080;5.624;2023-02-01T18:41:17;8.40;99.90
25450;DHT22;13371;52.080;5.624;2023-02-01T18:43:45;8.20;99.90
25450;DHT22;13371;52.080;5.624;2023-02-01T18:46:13;8.10;99.90
25450;DHT22;13371;52.080;5.624;2023-02-01T18:48:40;8.20;99.90
25450;DHT22;13371;52.080;5.624;2023-02-01T18:51:09;8.20;99.90
25450;DHT22;13371;52.080;5.624;2023-02-01T18:53:35;8.50;99.90
25450;DHT22;13371;52.080;5.624;2023-02-01T18:56:01;8.50;99.90
25450;DHT22;13371;52.080;5.624;2023-02-01T18:58:27;8.70;99.90
25450;DHT22;13371;52.080;5.624;2023-02-01T19:00:54;8.60;99.90
25450;DHT22;13371;52.080;5.624;2023-02-01T19:03:20;8.70;99.90
25450;DHT22;13371;52.080;5.624;2023-02-01T19:05:51;8.80;99.90
25450;DHT22;13371;52.080;5.624;2023-02-01T19:08:16;8.90;99.90
25450;DHT22;13371;52.080;5.624;2023-02-01T19:10:42;8.80;99.90
25450;DHT22;13371;52.080;5.624;2023-02-01T19:13:10;8.60;99.90
25450;DHT22;13371;52.080;5.624;2023-02-01T19:15:40;8.50;99.90
25450;DHT22;13371;52.080;5.624;2023-02-01T19:18:06;8.20;99.90
25450;DHT22;13371;52.080;5.624;2023-02-01T19:20:34;8.10;99.90
25450;DHT22;13371;52.080;5.624;2023-02-01T19:23:01;7.90;99.90
25450;DHT22;13371;52.080;5.624;2023-02-01T19:25:27;7.80;99.90
25450;DHT22;13371;52.080;5.624;2023-02-01T19:27:54;7.90;99.90
25450;DHT22;13371;52.080;5.624;2023-02-01T19:30:21;8.00;99.90